createdAt,value
2023-05-15T00:02:10.656Z,13.90
2023-05-15T00:04:38.573Z,13.80
2023-05-15T00:07:06.440Z,13.90
2023-05-15T00:09:34.160Z,14.00
2023-05-15T00:12:01.874Z,13.90
2023-05-15T00:14:29.643Z,13.90
2023-05-15T00:16:57.345Z,13.80
2023-05-15T00:19:25.032Z,13.80
2023-05-15T00:21:52.863Z,13.80
2023-05-15T00:24:21.873Z,13.80
2023-05-15T00:26:49.521Z,13.80
2023-05-15T00:29:17.307Z,13.70
2023-05-15T00:31:46.009Z,13.70
2023-05-15T00:34:13.775Z,13.60
2023-05-15T00:36:41.422Z,13.60
2023-05-15T00:39:09.095Z,13.60
2023-05-15T00:41:37.523Z,13.60
2023-05-15T00:44:07.066Z,13.40
2023-05-15T00:46:36.669Z,13.20
2023-05-15T00:49:06.876Z,13.00
2023-05-15T00:51:35.636Z,12.90
2023-05-15T00:54:03.969Z,12.80
2023-05-15T00:56:33.964Z,13.00
2023-05-15T00:59:04.058Z,13.00
2023-05-15T01:01:34.832Z,13.10
2023-05-15T01:04:04.337Z,13.20
2023-05-15T01:06:32.743Z,13.30
2023-05-15T01:09:04.113Z,13.40
2023-05-15T01:11:36.536Z,13.30
2023-05-15T01:14:06.224Z,13.20
2023-05-15T01:16:35.192Z,13.20
2023-05-15T01:19:04.188Z,13.20
2023-05-15T01:21:35.193Z,13.30
2023-05-15T01:24:22.469Z,13.30
2023-05-15T01:27:08.862Z,13.30
2023-05-15T01:30:04.997Z,13.30
2023-05-15T01:32:52.919Z,13.30
2023-05-15T01:35:28.926Z,13.30
2023-05-15T01:38:03.607Z,13.20
2023-05-15T01:40:31.288Z,13.00
2023-05-15T01:43:03.935Z,12.80
2023-05-15T01:45:33.454Z,12.70
2023-05-15T01:48:02.213Z,12.80
2023-05-15T01:50:34.928Z,12.90
2023-05-15T01:53:03.394Z,13.10
2023-05-15T01:55:31.493Z,13.10
2023-05-15T01:58:03.070Z,13.20
2023-05-15T02:00:32.938Z,13.10
2023-05-15T02:03:02.188Z,13.20
2023-05-15T02:05:30.612Z,13.20
2023-05-15T02:07:58.764Z,13.10
2023-05-15T02:10:26.981Z,13.10
2023-05-15T02:12:55.232Z,13.10
2023-05-15T02:15:25.017Z,13.10
2023-05-15T02:17:52.890Z,13.00
2023-05-15T02:20:21.261Z,13.00
2023-05-15T02:22:49.664Z,13.00
2023-05-15T02:25:17.490Z,12.90
2023-05-15T02:27:47.689Z,12.80
2023-05-15T02:30:34.413Z,12.60
2023-05-15T02:33:23.909Z,12.50
2023-05-15T02:35:58.951Z,12.50
2023-05-15T02:38:52.252Z,12.40
2023-05-15T02:41:22.153Z,12.40
2023-05-15T02:43:52.367Z,12.60
2023-05-15T02:46:21.630Z,12.50
2023-05-15T02:48:50.733Z,12.70
2023-05-15T02:51:18.497Z,12.70
2023-05-15T02:53:46.335Z,12.70
2023-05-15T02:56:14.025Z,12.80
2023-05-15T02:58:42.285Z,12.70
2023-05-15T03:01:10.094Z,12.80
2023-05-15T03:03:37.802Z,12.90
2023-05-15T03:06:05.623Z,12.90
2023-05-15T03:08:33.265Z,12.90
2023-05-15T03:11:01.275Z,12.90
2023-05-15T03:13:29.093Z,12.90
2023-05-15T03:15:56.771Z,12.90
2023-05-15T03:18:24.499Z,12.80
2023-05-15T03:20:52.975Z,12.70
2023-05-15T03:23:20.902Z,12.70
2023-05-15T03:25:48.625Z,12.70
2023-05-15T03:28:16.443Z,12.70
2023-05-15T03:30:45.267Z,12.70
2023-05-15T03:33:12.931Z,12.70
2023-05-15T03:35:40.666Z,12.80
2023-05-15T03:38:08.427Z,12.80
2023-05-15T03:40:39.113Z,12.80
2023-05-15T03:43:07.181Z,12.70
2023-05-15T03:45:37.976Z,12.60
2023-05-15T03:48:06.117Z,12.50
2023-05-15T03:50:34.058Z,12.60
2023-05-15T03:53:01.685Z,12.60
2023-05-15T03:55:29.406Z,12.60
2023-05-15T03:57:58.150Z,12.40
2023-05-15T04:00:26.127Z,12.50
2023-05-15T04:02:54.302Z,12.40
2023-05-15T04:05:22.799Z,12.30
2023-05-15T04:07:50.729Z,12.40
2023-05-15T04:10:18.391Z,12.50
2023-05-15T04:12:46.047Z,12.60
2023-05-15T04:15:25.068Z,12.60
2023-05-15T04:17:54.290Z,12.60
2023-05-15T04:20:24.172Z,12.60
2023-05-15T04:22:52.639Z,12.80
2023-05-15T04:25:20.547Z,12.80
2023-05-15T04:27:49.492Z,12.70
2023-05-15T04:30:17.757Z,12.70
2023-05-15T04:32:46.072Z,12.70
2023-05-15T04:35:15.492Z,12.60
2023-05-15T04:37:45.865Z,12.70
2023-05-15T04:40:16.489Z,12.70
2023-05-15T04:42:44.463Z,12.90
2023-05-15T04:45:14.979Z,12.70
2023-05-15T04:47:42.757Z,12.60
2023-05-15T04:50:10.847Z,12.50
2023-05-15T04:52:38.534Z,12.70
2023-05-15T04:55:06.805Z,12.70
2023-05-15T04:57:34.519Z,12.70
2023-05-15T05:00:02.623Z,12.80
2023-05-15T05:02:30.525Z,13.10
2023-05-15T05:04:58.146Z,13.30
2023-05-15T05:07:25.875Z,13.40
2023-05-15T05:09:53.657Z,13.40
2023-05-15T05:12:21.431Z,13.40
2023-05-15T05:14:49.441Z,13.40
2023-05-15T05:17:17.168Z,13.50
2023-05-15T05:19:44.875Z,13.40
2023-05-15T05:22:12.474Z,13.40
2023-05-15T05:24:40.341Z,13.40
2023-05-15T05:27:08.077Z,13.40
2023-05-15T05:29:35.868Z,13.50
2023-05-15T05:32:03.627Z,13.60
2023-05-15T05:34:31.296Z,13.80
2023-05-15T05:36:58.945Z,13.80
2023-05-15T05:39:26.601Z,13.80
2023-05-15T05:41:54.215Z,13.90
2023-05-15T05:44:22.036Z,13.90
2023-05-15T05:46:49.772Z,14.00
2023-05-15T05:49:17.474Z,14.20
2023-05-15T05:51:46.329Z,14.10
2023-05-15T05:54:15.187Z,14.00
2023-05-15T05:56:43.166Z,14.10
2023-05-15T05:59:11.275Z,14.20
2023-05-15T06:01:38.947Z,14.20
2023-05-15T06:04:06.814Z,14.30
2023-05-15T06:06:34.747Z,14.30
2023-05-15T06:09:02.435Z,14.40
2023-05-15T06:11:30.089Z,14.50
2023-05-15T06:13:57.797Z,14.50
2023-05-15T06:16:25.580Z,14.50
2023-05-15T06:18:53.392Z,14.60
2023-05-15T06:21:22.409Z,14.60
2023-05-15T06:23:50.096Z,14.50
2023-05-15T06:26:17.855Z,14.20
2023-05-15T06:28:45.560Z,14.20
2023-05-15T06:31:13.218Z,14.10
2023-05-15T06:33:41.438Z,14.10
2023-05-15T06:36:09.169Z,14.20
2023-05-15T06:38:36.860Z,14.40
2023-05-15T06:41:04.730Z,14.70
2023-05-15T06:43:32.661Z,15.00
2023-05-15T06:46:00.668Z,15.20
2023-05-15T06:48:28.416Z,15.40
2023-05-15T06:50:56.088Z,15.50
2023-05-15T06:53:23.648Z,15.40
2023-05-15T06:55:51.317Z,15.10
2023-05-15T06:58:19.214Z,15.00
2023-05-15T07:00:46.950Z,15.00
2023-05-15T07:03:15.948Z,15.10
2023-05-15T07:05:44.589Z,15.20
2023-05-15T07:08:12.288Z,15.20
2023-05-15T07:10:40.037Z,15.20
2023-05-15T07:13:07.616Z,15.00
2023-05-15T07:15:35.456Z,15.00
2023-05-15T07:18:03.387Z,14.90
2023-05-15T07:20:32.729Z,15.00
2023-05-15T07:23:03.082Z,15.20
2023-05-15T07:25:31.261Z,15.30
2023-05-15T07:27:59.011Z,15.60
2023-05-15T07:30:27.049Z,15.60
2023-05-15T07:32:55.240Z,15.70
2023-05-15T07:35:23.492Z,16.00
2023-05-15T07:37:51.315Z,16.30
2023-05-15T07:40:19.194Z,16.40
2023-05-15T07:42:47.180Z,16.50
2023-05-15T07:45:15.153Z,16.80
2023-05-15T07:47:49.475Z,16.80
2023-05-15T07:50:17.762Z,16.80
2023-05-15T07:52:45.785Z,16.80
2023-05-15T07:55:13.779Z,16.80
2023-05-15T07:57:41.480Z,16.60
2023-05-15T08:00:12.885Z,16.30
2023-05-15T08:02:42.757Z,16.20
2023-05-15T08:05:10.642Z,16.20
2023-05-15T08:07:38.249Z,16.00
2023-05-15T08:10:07.203Z,16.20
2023-05-15T08:12:35.250Z,16.30
2023-05-15T08:15:03.311Z,16.50
2023-05-15T08:17:31.113Z,16.60
2023-05-15T08:19:58.920Z,16.70
2023-05-15T08:22:26.611Z,16.90
2023-05-15T08:24:54.561Z,16.90
2023-05-15T08:27:22.406Z,16.80
2023-05-15T08:29:50.382Z,17.00
2023-05-15T08:32:18.513Z,16.90
2023-05-15T08:34:46.237Z,16.80
2023-05-15T08:37:14.419Z,16.80
2023-05-15T08:39:42.340Z,16.90
2023-05-15T08:42:34.090Z,17.00
2023-05-15T08:45:02.948Z,17.10
2023-05-15T08:47:35.707Z,17.30
2023-05-15T08:50:12.255Z,17.50
2023-05-15T08:52:42.867Z,17.60
2023-05-15T08:55:11.426Z,17.50
2023-05-15T08:57:39.501Z,17.60
2023-05-15T09:00:09.480Z,17.50
2023-05-15T09:02:40.812Z,17.60
2023-05-15T09:05:09.951Z,17.60
2023-05-15T09:07:41.130Z,17.80
2023-05-15T09:10:09.832Z,17.80
2023-05-15T09:12:43.245Z,17.90
2023-05-15T09:15:17.458Z,17.80
2023-05-15T09:17:46.538Z,17.70
2023-05-15T09:20:33.331Z,17.90
2023-05-15T09:23:03.848Z,18.20
2023-05-15T09:25:48.192Z,18.30
2023-05-15T09:28:26.229Z,18.30
2023-05-15T09:30:59.290Z,18.40
2023-05-15T09:33:42.433Z,18.50
2023-05-15T09:36:10.510Z,18.60
2023-05-15T09:38:43.326Z,18.70
2023-05-15T09:41:12.080Z,19.00
2023-05-15T09:43:41.404Z,19.00
2023-05-15T09:46:12.478Z,18.90
2023-05-15T09:48:40.612Z,18.80
2023-05-15T09:51:19.469Z,18.70
2023-05-15T09:53:53.022Z,18.80
2023-05-15T09:56:22.114Z,18.70
2023-05-15T09:58:57.712Z,18.70
2023-05-15T10:01:27.723Z,18.70
2023-05-15T10:04:03.896Z,18.70
2023-05-15T10:06:41.965Z,18.90
2023-05-15T10:09:11.772Z,18.90
2023-05-15T10:11:41.279Z,18.90
2023-05-15T10:14:11.103Z,19.00
2023-05-15T10:16:43.034Z,18.80
2023-05-15T10:19:12.993Z,18.50
2023-05-15T10:21:42.319Z,18.40
2023-05-15T10:24:13.164Z,18.30
2023-05-15T10:26:42.538Z,18.70
2023-05-15T10:29:15.361Z,19.10
2023-05-15T10:31:45.340Z,19.40
2023-05-15T10:34:14.054Z,19.60
2023-05-15T10:36:43.309Z,19.80
2023-05-15T10:39:11.943Z,20.00
2023-05-15T10:41:40.761Z,20.30
2023-05-15T10:44:11.289Z,20.30
2023-05-15T10:46:39.965Z,20.40
2023-05-15T10:49:07.633Z,20.60
2023-05-15T10:51:39.669Z,20.80
2023-05-15T10:54:09.753Z,20.70
2023-05-15T10:56:42.271Z,20.90
2023-05-15T10:59:11.720Z,20.60
2023-05-15T11:01:41.419Z,20.70
2023-05-15T11:04:18.905Z,20.70
2023-05-15T11:06:49.052Z,21.00
2023-05-15T11:09:23.301Z,20.70
2023-05-15T11:11:57.506Z,20.40
2023-05-15T11:14:26.169Z,20.50
2023-05-15T11:16:53.925Z,20.70
2023-05-15T11:19:37.632Z,21.00
2023-05-15T11:22:25.777Z,21.30
2023-05-15T11:25:08.383Z,21.50
2023-05-15T11:27:42.097Z,21.50
2023-05-15T11:30:25.420Z,21.70
2023-05-15T11:32:59.772Z,21.90
2023-05-15T11:35:34.469Z,22.10
2023-05-15T11:38:11.294Z,22.40
2023-05-15T11:40:57.169Z,22.40
2023-05-15T11:43:36.606Z,22.60
2023-05-15T11:46:06.516Z,22.60
2023-05-15T11:48:41.804Z,22.60
2023-05-15T11:51:25.704Z,22.50
2023-05-15T11:53:55.452Z,22.70
2023-05-15T11:56:29.451Z,22.80
2023-05-15T11:58:59.751Z,23.10
2023-05-15T12:01:28.371Z,23.30
2023-05-15T12:03:56.645Z,23.30
2023-05-15T12:06:24.743Z,23.30
2023-05-15T12:08:53.627Z,23.40
2023-05-15T12:11:25.438Z,23.00
2023-05-15T12:13:54.468Z,23.00
2023-05-15T12:16:28.897Z,23.10
2023-05-15T12:19:00.559Z,23.10
2023-05-15T12:21:28.423Z,23.20
2023-05-15T12:26:29.262Z,23.40
2023-05-15T12:28:57.233Z,23.50
2023-05-15T12:31:25.147Z,23.80
2023-05-15T12:33:52.962Z,24.00
2023-05-15T12:36:22.044Z,24.20
2023-05-15T12:38:49.956Z,24.20
2023-05-15T12:41:20.040Z,24.20
2023-05-15T12:43:48.728Z,24.20
2023-05-15T12:46:16.507Z,24.40
2023-05-15T12:48:45.036Z,24.60
2023-05-15T12:51:16.849Z,24.80
2023-05-15T12:53:45.201Z,24.70
2023-05-15T12:56:17.170Z,24.90
2023-05-15T12:58:45.208Z,25.00
2023-05-15T13:01:12.883Z,24.70
2023-05-15T13:03:43.051Z,24.90
2023-05-15T13:06:11.149Z,25.10
2023-05-15T13:08:42.752Z,25.00
2023-05-15T13:11:14.494Z,25.20
2023-05-15T13:13:47.810Z,25.10
2023-05-15T13:16:29.591Z,25.00
2023-05-15T13:18:58.719Z,25.20
2023-05-15T13:21:26.602Z,25.30
2023-05-15T13:23:54.233Z,25.20
2023-05-15T13:26:21.978Z,24.90
2023-05-15T13:28:50.163Z,25.00
2023-05-15T13:31:18.001Z,25.00
2023-05-15T13:33:45.951Z,25.10
2023-05-15T13:36:13.815Z,25.10
2023-05-15T13:38:41.608Z,25.00
2023-05-15T13:41:09.863Z,24.80
2023-05-15T13:43:37.557Z,24.50
2023-05-15T13:46:05.377Z,24.30
2023-05-15T13:48:33.024Z,24.30
2023-05-15T13:51:00.890Z,24.50
2023-05-15T13:53:28.688Z,24.60
2023-05-15T13:55:56.456Z,25.00
2023-05-15T13:58:26.948Z,25.20
2023-05-15T14:00:54.686Z,25.30
2023-05-15T14:03:22.459Z,25.40
2023-05-15T14:05:50.255Z,25.20
2023-05-15T14:08:18.026Z,25.20
2023-05-15T14:10:45.718Z,25.40
2023-05-15T14:13:13.409Z,25.00
2023-05-15T14:15:41.103Z,24.40
2023-05-15T14:18:08.844Z,24.20
2023-05-15T14:20:36.632Z,24.30
2023-05-15T14:23:04.328Z,24.60
2023-05-15T14:25:32.022Z,24.80
2023-05-15T14:27:59.693Z,24.70
2023-05-15T14:30:27.615Z,24.70
2023-05-15T14:32:55.411Z,24.80
2023-05-15T14:35:23.198Z,25.00
2023-05-15T14:37:50.960Z,25.30
2023-05-15T14:40:18.725Z,25.40
2023-05-15T14:42:46.419Z,25.20
2023-05-15T14:45:14.631Z,25.30
2023-05-15T14:47:42.336Z,25.40
2023-05-15T14:50:10.219Z,25.30
2023-05-15T14:52:37.991Z,25.20
2023-05-15T14:55:09.843Z,24.90
2023-05-15T14:57:38.722Z,25.00
2023-05-15T15:00:08.472Z,24.80
2023-05-15T15:02:36.534Z,25.00
2023-05-15T15:05:04.766Z,25.00
2023-05-15T15:08:00.946Z,25.10
2023-05-15T15:10:29.001Z,24.90
2023-05-15T15:12:56.968Z,25.10
2023-05-15T15:15:24.986Z,25.20
2023-05-15T15:17:58.816Z,25.10
2023-05-15T15:20:28.694Z,25.20
2023-05-15T15:22:57.116Z,25.20
2023-05-15T15:25:25.275Z,25.40
2023-05-15T15:27:55.792Z,25.50
2023-05-15T15:30:23.983Z,25.50
2023-05-15T15:32:51.957Z,25.30
2023-05-15T15:35:20.134Z,25.40
2023-05-15T15:37:48.151Z,25.40
2023-05-15T15:40:16.125Z,25.60
2023-05-15T15:42:44.223Z,25.50
2023-05-15T15:45:12.471Z,25.50
2023-05-15T15:47:40.486Z,25.20
2023-05-15T15:50:08.918Z,24.80
2023-05-15T15:52:37.088Z,24.70
2023-05-15T15:55:05.533Z,24.90
2023-05-15T15:57:33.756Z,24.90
2023-05-15T16:00:01.601Z,24.80
2023-05-15T16:02:29.429Z,24.60
2023-05-15T16:04:57.120Z,24.30
2023-05-15T16:07:24.901Z,23.80
2023-05-15T16:10:00.511Z,23.80
2023-05-15T16:12:40.798Z,23.70
2023-05-15T16:15:21.774Z,23.60
2023-05-15T16:17:55.184Z,23.60
2023-05-15T16:20:24.232Z,23.40
2023-05-15T16:22:52.384Z,23.50
2023-05-15T16:25:20.237Z,23.40
2023-05-15T16:27:47.940Z,23.30
2023-05-15T16:30:15.833Z,23.30
2023-05-15T16:32:43.534Z,23.20
2023-05-15T16:35:11.268Z,23.20
2023-05-15T16:37:39.013Z,23.20
2023-05-15T16:40:07.411Z,23.20
2023-05-15T16:42:38.284Z,23.30
2023-05-15T16:45:06.784Z,23.30
2023-05-15T16:47:35.351Z,23.30
2023-05-15T16:50:03.805Z,23.10
2023-05-15T16:52:31.512Z,23.00
2023-05-15T16:54:59.123Z,23.10
2023-05-15T16:57:27.128Z,23.20
2023-05-15T16:59:55.004Z,23.40
2023-05-15T17:02:22.849Z,23.90
2023-05-15T17:04:51.042Z,24.40
2023-05-15T17:07:18.828Z,24.70
2023-05-15T17:09:46.693Z,24.80
2023-05-15T17:12:14.425Z,24.90
2023-05-15T17:14:42.078Z,25.10
2023-05-15T17:17:09.784Z,25.30
2023-05-15T17:19:38.179Z,25.50
2023-05-15T17:22:06.081Z,25.40
2023-05-15T17:24:49.348Z,24.90
2023-05-15T17:27:18.882Z,24.30
2023-05-15T17:29:46.697Z,23.50
2023-05-15T17:32:14.915Z,23.10
2023-05-15T17:34:43.362Z,22.80
2023-05-15T17:37:11.214Z,22.50
2023-05-15T17:39:39.012Z,22.40
2023-05-15T17:42:06.827Z,22.20
2023-05-15T17:44:34.601Z,22.10
2023-05-15T17:47:02.399Z,22.00
2023-05-15T17:49:30.427Z,22.00
2023-05-15T17:51:58.217Z,22.10
2023-05-15T17:54:26.162Z,22.10
2023-05-15T17:56:53.802Z,22.10
2023-05-15T17:59:21.402Z,22.00
2023-05-15T18:01:49.149Z,21.80
2023-05-15T18:04:17.055Z,21.70
2023-05-15T18:06:45.025Z,21.50
2023-05-15T18:09:12.713Z,21.60
2023-05-15T18:11:40.572Z,21.60
2023-05-15T18:14:08.256Z,21.60
2023-05-15T18:16:35.931Z,21.50
2023-05-15T18:19:03.685Z,21.40
2023-05-15T18:21:31.434Z,21.40
2023-05-15T18:23:59.109Z,21.30
2023-05-15T18:26:29.218Z,21.10
2023-05-15T18:28:57.145Z,21.00
2023-05-15T18:31:24.924Z,20.90
2023-05-15T18:33:52.630Z,20.80
2023-05-15T18:36:20.355Z,20.70
2023-05-15T18:38:48.167Z,20.60
2023-05-15T18:41:15.842Z,20.60
2023-05-15T18:43:43.538Z,20.50
2023-05-15T18:46:11.443Z,20.50
2023-05-15T18:48:39.175Z,20.50
2023-05-15T18:51:06.953Z,20.40
2023-05-15T18:53:34.685Z,20.20
2023-05-15T18:56:02.488Z,20.20
2023-05-15T18:58:30.355Z,20.20
2023-05-15T19:00:58.141Z,20.00
2023-05-15T19:03:26.073Z,19.90
2023-05-15T19:05:53.843Z,20.00
2023-05-15T19:08:21.887Z,20.00
2023-05-15T19:10:50.748Z,20.10
2023-05-15T19:13:19.170Z,19.90
2023-05-15T19:15:53.274Z,19.90
2023-05-15T19:18:21.078Z,19.70
2023-05-15T19:20:52.308Z,19.60
2023-05-15T19:23:23.927Z,19.50
2023-05-15T19:25:51.650Z,19.50
2023-05-15T19:28:19.359Z,19.20
2023-05-15T19:30:47.095Z,19.10
2023-05-15T19:33:16.730Z,19.10
2023-05-15T19:35:44.671Z,19.20
2023-05-15T19:38:12.419Z,19.20
2023-05-15T19:40:43.985Z,19.20
2023-05-15T19:43:11.826Z,19.10
2023-05-15T19:45:43.088Z,19.10
2023-05-15T19:48:12.244Z,19.00
2023-05-15T19:50:40.164Z,19.10
2023-05-15T19:53:08.276Z,19.00
2023-05-15T19:55:36.109Z,19.10
2023-05-15T19:58:04.201Z,19.00
2023-05-15T20:00:32.588Z,19.00
2023-05-15T20:03:01.054Z,18.90
2023-05-15T20:05:29.033Z,18.70
2023-05-15T20:07:56.711Z,18.80
2023-05-15T20:10:24.816Z,18.80
2023-05-15T20:12:52.858Z,18.80
2023-05-15T20:15:20.606Z,18.80
2023-05-15T20:17:48.296Z,18.90
2023-05-15T20:20:16.806Z,18.80
2023-05-15T20:22:45.228Z,18.80
2023-05-15T20:25:13.054Z,18.70
2023-05-15T20:27:40.886Z,18.70
2023-05-15T20:30:08.953Z,18.60
2023-05-15T20:32:37.063Z,18.50
2023-05-15T20:35:05.639Z,18.50
2023-05-15T20:37:33.519Z,18.50
2023-05-15T20:40:01.275Z,18.40
2023-05-15T20:42:29.326Z,18.50
2023-05-15T20:44:57.009Z,18.50
2023-05-15T20:47:24.700Z,18.30
2023-05-15T20:49:52.359Z,18.30
2023-05-15T20:52:20.898Z,18.40
2023-05-15T20:54:48.952Z,18.40
2023-05-15T20:57:17.868Z,18.50
2023-05-15T20:59:45.917Z,18.40
2023-05-15T21:02:13.810Z,18.40
2023-05-15T21:04:41.907Z,18.40
2023-05-15T21:07:09.973Z,18.40
2023-05-15T21:09:37.727Z,18.20
2023-05-15T21:12:05.938Z,18.20
2023-05-15T21:14:33.604Z,18.20
2023-05-15T21:17:01.445Z,18.20
2023-05-15T21:19:29.244Z,18.20
2023-05-15T21:21:56.825Z,18.10
2023-05-15T21:24:24.448Z,18.10
2023-05-15T21:26:52.133Z,18.10
2023-05-15T21:29:19.778Z,18.00
2023-05-15T21:31:47.836Z,17.90
2023-05-15T21:34:15.539Z,17.80
2023-05-15T21:36:43.160Z,17.90
2023-05-15T21:39:10.799Z,17.90
2023-05-15T21:41:38.411Z,18.00
2023-05-15T21:44:06.145Z,18.10
2023-05-15T21:46:33.734Z,18.20
2023-05-15T21:49:01.893Z,18.20
2023-05-15T21:51:29.608Z,18.10
2023-05-15T21:53:57.592Z,18.00
2023-05-15T21:56:25.299Z,18.10
2023-05-15T21:58:53.527Z,18.10
2023-05-15T22:01:21.278Z,18.10
2023-05-15T22:03:49.110Z,17.90
2023-05-15T22:06:17.592Z,17.70
2023-05-15T22:08:45.242Z,17.80
2023-05-15T22:11:12.876Z,17.80
2023-05-15T22:13:40.609Z,18.00
2023-05-15T22:16:08.346Z,18.00
2023-05-15T22:18:36.033Z,17.90
2023-05-15T22:21:03.958Z,17.80
2023-05-15T22:23:32.447Z,17.80
2023-05-15T22:26:00.193Z,18.00
2023-05-15T22:28:28.178Z,17.90
2023-05-15T22:30:56.048Z,18.10
2023-05-15T22:33:24.641Z,18.20
2023-05-15T22:35:53.287Z,18.10
2023-05-15T22:38:21.199Z,17.80
2023-05-15T22:40:52.869Z,17.90
2023-05-15T22:43:22.567Z,18.00
2023-05-15T22:45:50.747Z,17.90
2023-05-15T22:48:18.713Z,17.90
2023-05-15T22:50:46.595Z,17.80
2023-05-15T22:53:14.700Z,17.70
2023-05-15T22:55:42.870Z,17.80
2023-05-15T22:58:10.514Z,17.80
2023-05-15T23:00:38.628Z,17.80
2023-05-15T23:03:06.442Z,17.80
2023-05-15T23:05:34.187Z,17.80
2023-05-15T23:08:01.931Z,17.80
2023-05-15T23:10:29.770Z,17.70
2023-05-15T23:12:57.516Z,17.70
2023-05-15T23:15:25.222Z,17.60
2023-05-15T23:17:53.121Z,17.60
2023-05-15T23:20:20.870Z,17.60
2023-05-15T23:22:48.593Z,17.70
2023-05-15T23:25:16.448Z,17.70
2023-05-15T23:27:44.147Z,17.60
2023-05-15T23:30:12.057Z,17.70
2023-05-15T23:32:39.704Z,17.70
2023-05-15T23:35:07.711Z,17.70
2023-05-15T23:37:36.046Z,17.70
2023-05-15T23:40:05.502Z,17.70
2023-05-15T23:42:33.179Z,17.70
2023-05-15T23:45:00.936Z,17.70
2023-05-15T23:47:28.548Z,17.80
2023-05-15T23:49:56.331Z,17.80
2023-05-15T23:52:24.050Z,17.80
2023-05-15T23:54:51.702Z,17.80
2023-05-15T23:57:19.579Z,17.80
2023-05-15T23:59:47.178Z,17.90
